Time;durP1;ratioP1;P1;durP2;ratioP2;P2;SDS_P1;SDS_P2;PMS_P1;PMS_P2;Temp;Humidity;BMP_temperature;BMP_pressure;BME280_temperature;BME280_humidity;BME280_pressure;Samples;Min_cycle;Max_cycle;Signal;HPM_P1;HPM_P2
2023/06/23 00:01:22;;;;;;;9.73;9.00;;;17.80;99.90;;;;;;5086961;28;20905;-70
2023/06/23 00:03:47;;;;;;;9.83;8.97;;;17.70;99.90;;;;;;5083706;28;20421;-70
2023/06/23 00:06:14;;;;;;;10.30;9.50;;;17.80;99.90;;;;;;5084267;28;20462;-70
2023/06/23 00:08:40;;;;;;;9.83;9.13;;;17.80;99.90;;;;;;5089574;28;20208;-71
2023/06/23 00:11:10;;;;;;;9.27;8.47;;;17.80;99.90;;;;;;5083481;28;20457;-71
2023/06/23 00:13:37;;;;;;;9.73;8.93;;;17.80;99.90;;;;;;5085453;28;20419;-70
2023/06/23 00:16:06;;;;;;;9.90;9.17;;;17.80;99.90;;;;;;5082989;28;20423;-70
2023/06/23 00:18:35;;;;;;;9.33;8.53;;;17.80;99.90;;;;;;5088328;28;20542;-70
2023/06/23 00:21:03;;;;;;;9.60;8.80;;;17.80;99.90;;;;;;5071520;28;20431;-70
2023/06/23 00:23:30;;;;;;;9.90;9.20;;;17.80;99.90;;;;;;5070356;28;20418;-71
2023/06/23 00:25:57;;;;;;;11.10;10.20;;;17.80;99.90;;;;;;5071483;28;20463;-70
2023/06/23 00:28:23;;;;;;;12.37;11.27;;;17.70;99.90;;;;;;5100454;28;20418;-70
2023/06/23 00:30:49;;;;;;;13.40;12.30;;;17.70;99.90;;;;;;5112091;28;20436;-70
2023/06/23 00:33:16;;;;;;;13.67;12.53;;;17.60;99.90;;;;;;5110830;28;20516;-70
2023/06/23 00:35:41;;;;;;;12.90;11.90;;;17.60;99.90;;;;;;5111983;28;20417;-70
2023/06/23 00:38:07;;;;;;;12.97;11.87;;;17.60;99.90;;;;;;5111234;28;20930;-70
2023/06/23 00:40:34;;;;;;;12.73;11.63;;;17.50;99.90;;;;;;5111686;28;20441;-70
2023/06/23 00:43:00;;;;;;;12.80;11.70;;;17.50;99.90;;;;;;5110937;28;20585;-70
2023/06/23 00:45:25;;;;;;;11.23;10.33;;;17.50;99.90;;;;;;5110177;28;20468;-70
2023/06/23 00:47:51;;;;;;;11.63;10.57;;;17.60;99.90;;;;;;5111721;28;20671;-70
2023/06/23 00:50:19;;;;;;;12.60;11.50;;;17.50;99.90;;;;;;5098603;28;20246;-70
2023/06/23 00:52:50;;;;;;;12.20;11.10;;;17.50;99.90;;;;;;5090276;28;20410;-70
2023/06/23 00:55:27;;;;;;;11.87;10.87;;;17.50;99.90;;;;;;5090557;28;20508;-71
2023/06/23 00:57:55;;;;;;;14.90;13.60;;;17.50;99.90;;;;;;5089996;28;20485;-71
2023/06/23 01:00:22;;;;;;;13.27;12.07;;;17.40;99.90;;;;;;5090972;28;20434;-71
2023/06/23 01:02:53;;;;;;;13.47;12.27;;;17.40;99.90;;;;;;5090372;28;20415;-70
2023/06/23 01:05:22;;;;;;;12.60;11.40;;;17.40;99.90;;;;;;5090571;28;20523;-70
2023/06/23 01:08:17;;;;;;;13.77;12.60;;;17.40;99.90;;;;;;5090879;28;20410;-70
2023/06/23 01:11:09;;;;;;;13.97;12.77;;;17.40;99.90;;;;;;5090823;28;20427;-71
2023/06/23 01:14:06;;;;;;;13.17;11.90;;;17.40;99.90;;;;;;5089858;28;20426;-70
2023/06/23 01:16:37;;;;;;;13.23;12.03;;;17.40;99.90;;;;;;5090811;28;20911;-71
2023/06/23 01:19:28;;;;;;;13.17;12.07;;;17.40;99.90;;;;;;5090467;28;20451;-71
2023/06/23 01:22:16;;;;;;;14.10;12.90;;;17.40;99.90;;;;;;5090118;28;20414;-70
2023/06/23 01:24:50;;;;;;;12.70;11.70;;;17.40;99.90;;;;;;5090163;28;20462;-71
2023/06/23 01:27:38;;;;;;;14.53;13.23;;;17.50;99.90;;;;;;5095858;28;20427;-71
2023/06/23 01:30:06;;;;;;;14.43;13.13;;;17.40;99.90;;;;;;5088601;28;21059;-71
2023/06/23 01:32:38;;;;;;;13.23;12.03;;;17.30;99.90;;;;;;5089952;28;20734;-70
2023/06/23 01:35:09;;;;;;;13.07;11.83;;;17.30;99.90;;;;;;5090059;28;20838;-71
2023/06/23 01:37:37;;;;;;;14.57;13.23;;;17.30;99.90;;;;;;5090205;28;20502;-70
2023/06/23 01:40:13;;;;;;;15.50;14.07;;;17.30;99.90;;;;;;5090183;28;20439;-70
2023/06/23 01:42:50;;;;;;;13.43;12.30;;;17.40;99.90;;;;;;5089595;28;20418;-70
2023/06/23 01:45:17;;;;;;;14.33;13.10;;;17.30;99.90;;;;;;5090030;28;20465;-71
2023/06/23 01:47:49;;;;;;;13.47;12.13;;;17.30;99.90;;;;;;5090190;28;20406;-70
2023/06/23 01:50:18;;;;;;;13.67;12.27;;;17.30;99.90;;;;;;5089293;28;20442;-71
2023/06/23 01:52:45;;;;;;;14.47;13.07;;;17.30;99.90;;;;;;5089416;28;20406;-70
2023/06/23 01:55:12;;;;;;;13.87;12.67;;;17.30;99.90;;;;;;5089871;28;20771;-70
2023/06/23 01:57:41;;;;;;;13.37;12.10;;;17.30;99.90;;;;;;5088969;28;20477;-70
2023/06/23 02:00:13;;;;;;;14.00;12.73;;;17.30;99.90;;;;;;5088771;28;20438;-70
2023/06/23 02:02:45;;;;;;;13.83;12.63;;;17.30;99.90;;;;;;5089174;28;20787;-70
2023/06/23 02:05:12;;;;;;;13.30;12.10;;;17.40;99.90;;;;;;5089331;28;20535;-70
2023/06/23 02:07:40;;;;;;;13.63;12.33;;;17.40;99.90;;;;;;5088405;28;21115;-71
2023/06/23 02:10:07;;;;;;;13.10;11.90;;;17.30;99.90;;;;;;5089717;28;21041;-70
2023/06/23 02:12:35;;;;;;;14.53;13.13;;;17.30;99.90;;;;;;5089015;28;20555;-70
2023/06/23 02:15:03;;;;;;;14.00;12.70;;;17.30;99.90;;;;;;5089259;28;20422;-71
2023/06/23 02:17:30;;;;;;;15.30;13.80;;;17.40;99.90;;;;;;5089829;28;20426;-71
2023/06/23 02:19:57;;;;;;;15.60;14.20;;;17.40;99.90;;;;;;5089534;28;20426;-70
2023/06/23 02:22:26;;;;;;;14.80;13.40;;;17.40;99.90;;;;;;5089291;28;21166;-70
2023/06/23 02:24:53;;;;;;;15.20;13.80;;;17.40;99.90;;;;;;5089154;28;20873;-70
2023/06/23 02:27:20;;;;;;;14.37;13.17;;;17.40;99.90;;;;;;5094997;28;21113;-70
2023/06/23 02:29:48;;;;;;;14.10;12.90;;;17.40;99.90;;;;;;5109584;28;20500;-71
2023/06/23 02:32:16;;;;;;;14.33;12.93;;;17.40;99.90;;;;;;5109156;28;20976;-70
2023/06/23 02:34:48;;;;;;;14.40;13.10;;;17.40;99.90;;;;;;5100432;28;20425;-70
2023/06/23 02:37:18;;;;;;;13.63;12.33;;;17.40;99.90;;;;;;5088900;28;20415;-70
2023/06/23 02:39:47;;;;;;;12.30;11.13;;;17.40;99.90;;;;;;5089265;28;20464;-70
2023/06/23 02:42:15;;;;;;;13.53;12.23;;;17.30;99.90;;;;;;5088687;28;20479;-70
2023/06/23 02:44:49;;;;;;;13.23;12.03;;;17.30;99.90;;;;;;5089105;28;20906;-70
2023/06/23 02:47:18;;;;;;;13.47;11.80;;;17.20;99.90;;;;;;5089464;28;20497;-70
2023/06/23 02:49:45;;;;;;;12.00;10.23;;;17.20;99.90;;;;;;5089267;28;20441;-70
2023/06/23 02:52:13;;;;;;;11.73;10.53;;;17.30;99.90;;;;;;5088478;28;20456;-70
2023/06/23 02:54:44;;;;;;;10.57;9.50;;;17.30;99.90;;;;;;5088910;28;20418;-70
2023/06/23 02:57:15;;;;;;;10.83;9.70;;;17.30;99.90;;;;;;5088758;28;20415;-70
2023/06/23 02:59:42;;;;;;;11.47;9.80;;;17.40;99.90;;;;;;5089060;28;21016;-70
2023/06/23 03:02:09;;;;;;;10.90;9.77;;;17.30;99.90;;;;;;5088279;28;20426;-70
2023/06/23 03:04:38;;;;;;;12.03;10.63;;;17.20;99.90;;;;;;5088547;28;20462;-70
2023/06/23 03:07:05;;;;;;;11.70;10.50;;;17.20;99.90;;;;;;5087606;28;20422;-70
2023/06/23 03:09:31;;;;;;;12.70;11.30;;;17.20;99.90;;;;;;5088888;28;20496;-70
2023/06/23 03:11:57;;;;;;;12.70;11.40;;;17.10;99.90;;;;;;5088462;28;20430;-70
2023/06/23 03:14:23;;;;;;;12.90;10.63;;;17.10;99.90;;;;;;5088857;28;20848;-70
2023/06/23 03:16:59;;;;;;;11.10;10.10;;;17.10;99.90;;;;;;5089086;28;20188;-70
2023/06/23 03:19:42;;;;;;;12.60;11.30;;;17.10;99.90;;;;;;5089081;28;20438;-70
2023/06/23 03:22:19;;;;;;;14.23;11.97;;;17.10;99.90;;;;;;5088417;28;20413;-71
2023/06/23 03:24:52;;;;;;;13.60;12.30;;;17.10;99.90;;;;;;5087417;28;20461;-70
2023/06/23 03:27:21;;;;;;;13.40;12.00;;;17.20;99.90;;;;;;5094166;28;20437;-70
2023/06/23 03:29:52;;;;;;;14.07;12.40;;;17.20;99.90;;;;;;5109307;28;20486;-71
2023/06/23 03:32:31;;;;;;;14.20;12.70;;;17.20;99.90;;;;;;5108487;28;20409;-70
2023/06/23 03:35:03;;;;;;;13.90;11.57;;;17.20;99.90;;;;;;5086080;28;20414;-70
2023/06/23 03:37:31;;;;;;;13.47;12.20;;;17.20;99.90;;;;;;5087215;28;20426;-70
2023/06/23 03:40:01;;;;;;;14.43;13.03;;;17.20;99.90;;;;;;5088618;28;20436;-70
2023/06/23 03:42:28;;;;;;;13.90;12.60;;;17.20;99.90;;;;;;5084559;28;21199;-70
2023/06/23 03:44:58;;;;;;;15.40;13.33;;;17.20;99.90;;;;;;5088393;28;20527;-70
2023/06/23 03:47:28;;;;;;;15.10;13.67;;;17.20;99.90;;;;;;5088536;28;20402;-70
2023/06/23 03:50:03;;;;;;;13.90;12.50;;;17.20;99.90;;;;;;5088577;28;20429;-70
2023/06/23 03:52:30;;;;;;;14.13;12.73;;;17.10;99.90;;;;;;5087830;28;20410;-70
2023/06/23 03:54:57;;;;;;;16.70;15.00;;;17.20;99.90;;;;;;5088179;28;20418;-70
2023/06/23 03:57:29;;;;;;;15.03;13.53;;;17.20;99.90;;;;;;5084003;28;20464;-70
2023/06/23 03:59:56;;;;;;;16.17;13.73;;;17.20;99.90;;;;;;5087588;28;20438;-70
2023/06/23 04:02:24;;;;;;;15.47;13.97;;;17.30;99.90;;;;;;5087772;28;20418;-70
2023/06/23 04:04:54;;;;;;;16.17;13.93;;;17.30;99.90;;;;;;5087995;28;20462;-70
2023/06/23 04:07:22;;;;;;;15.90;14.30;;;17.30;99.90;;;;;;5088165;28;20900;-70
2023/06/23 04:09:50;;;;;;;15.53;14.00;;;17.20;99.90;;;;;;5088446;28;20510;-70
2023/06/23 04:12:17;;;;;;;16.83;13.97;;;17.30;99.90;;;;;;5088821;28;20415;-70
2023/06/23 04:14:47;;;;;;;14.80;13.27;;;17.30;99.90;;;;;;5091776;28;20433;-70
2023/06/23 04:17:15;;;;;;;16.57;14.87;;;17.30;99.90;;;;;;5091854;28;20525;-70
2023/06/23 04:19:44;;;;;;;15.97;14.20;;;17.30;99.90;;;;;;5090775;28;20575;-70
2023/06/23 04:22:14;;;;;;;16.50;14.90;;;17.30;99.90;;;;;;5091145;28;20430;-71
2023/06/23 04:24:40;;;;;;;16.37;14.37;;;17.30;99.90;;;;;;5091304;28;20461;-70
2023/06/23 04:27:08;;;;;;;15.70;14.30;;;17.30;99.90;;;;;;5092141;28;20453;-70
2023/06/23 04:29:38;;;;;;;16.33;14.63;;;17.30;99.90;;;;;;5091536;28;20525;-70
2023/06/23 04:32:04;;;;;;;17.30;15.50;;;17.30;99.90;;;;;;5090954;28;20421;-70
2023/06/23 04:34:30;;;;;;;16.80;15.10;;;17.30;99.90;;;;;;5091255;28;20907;-70
2023/06/23 04:37:23;;;;;;;17.20;14.93;;;17.30;99.90;;;;;;5090249;28;21030;-70
2023/06/23 04:39:57;;;;;;;16.97;15.27;;;17.30;99.90;;;;;;5091565;28;20245;-70
2023/06/23 04:42:27;;;;;;;19.40;16.90;;;17.30;99.90;;;;;;5080001;28;20542;-69
2023/06/23 04:44:58;;;;;;;18.60;16.70;;;17.30;99.90;;;;;;5081464;28;20462;-69
2023/06/23 04:47:28;;;;;;;18.10;16.20;;;17.30;99.90;;;;;;5088859;28;20476;-69
2023/06/23 04:49:59;;;;;;;16.83;15.00;;;17.30;99.90;;;;;;5088037;28;20439;-69
2023/06/23 04:52:26;;;;;;;17.40;15.70;;;17.30;99.90;;;;;;5083594;28;20426;-69
2023/06/23 04:54:58;;;;;;;20.30;18.23;;;17.30;99.90;;;;;;5087368;28;20430;-69
2023/06/23 04:57:27;;;;;;;18.77;16.87;;;17.30;99.90;;;;;;5083852;28;20426;-69
2023/06/23 04:59:56;;;;;;;18.23;16.30;;;17.30;99.90;;;;;;5087731;28;20453;-69
2023/06/23 05:02:25;;;;;;;17.97;16.27;;;17.30;99.90;;;;;;5085991;28;20441;-69
2023/06/23 05:04:52;;;;;;;20.07;17.63;;;17.30;99.90;;;;;;5087783;28;21024;-69
2023/06/23 05:07:19;;;;;;;21.27;19.07;;;17.20;99.90;;;;;;5090484;28;20411;-69
2023/06/23 05:09:50;;;;;;;21.80;19.60;;;17.20;99.90;;;;;;5086182;28;20475;-69
2023/06/23 05:12:18;;;;;;;21.83;19.50;;;17.20;99.90;;;;;;5090025;28;20426;-70
2023/06/23 05:14:45;;;;;;;20.97;18.93;;;17.20;99.90;;;;;;5089077;28;20418;-70
2023/06/23 05:17:14;;;;;;;22.27;20.17;;;17.10;99.90;;;;;;5090420;28;20406;-70
2023/06/23 05:19:43;;;;;;;22.20;19.90;;;17.20;99.90;;;;;;5090589;28;20450;-70
2023/06/23 05:22:13;;;;;;;22.27;20.17;;;17.20;99.90;;;;;;5090050;28;20411;-70
2023/06/23 05:24:42;;;;;;;23.60;21.10;;;17.30;99.90;;;;;;5090222;28;20497;-70
2023/06/23 05:27:10;;;;;;;22.37;20.13;;;17.30;99.90;;;;;;5094275;28;20746;-70
2023/06/23 05:29:39;;;;;;;25.27;21.17;;;17.20;99.90;;;;;;5110887;28;20982;-70
2023/06/23 05:32:18;;;;;;;23.57;21.17;;;17.20;99.90;;;;;;5109006;28;20418;-70
2023/06/23 05:34:47;;;;;;;23.47;21.07;;;17.20;99.90;;;;;;5110586;28;20425;-70
2023/06/23 05:37:16;;;;;;;22.13;19.87;;;17.30;99.90;;;;;;5110643;28;20475;-70
2023/06/23 05:39:43;;;;;;;22.57;20.27;;;17.30;99.90;;;;;;5110501;28;20433;-70
2023/06/23 05:42:09;;;;;;;23.67;21.37;;;17.30;99.90;;;;;;5110202;28;20497;-70
2023/06/23 05:44:36;;;;;;;23.80;21.30;;;17.30;99.90;;;;;;5107399;28;20560;-70
2023/06/23 05:47:04;;;;;;;26.60;23.90;;;17.30;99.90;;;;;;5087126;28;20177;-70
2023/06/23 05:49:40;;;;;;;22.83;20.70;;;17.30;99.90;;;;;;5089749;28;20843;-70
2023/06/23 05:52:10;;;;;;;26.03;23.47;;;17.30;99.90;;;;;;5082892;28;20433;-70
2023/06/23 05:54:40;;;;;;;26.43;23.60;;;17.30;99.90;;;;;;5082337;28;20407;-70
2023/06/23 05:57:12;;;;;;;27.83;25.07;;;17.30;99.90;;;;;;5086161;28;20520;-70
2023/06/23 05:59:42;;;;;;;25.40;22.70;;;17.30;99.90;;;;;;5089808;28;20477;-70
2023/06/23 06:02:16;;;;;;;24.17;21.93;;;17.30;99.90;;;;;;5083348;28;20430;-69
2023/06/23 06:04:47;;;;;;;24.17;21.57;;;17.40;99.90;;;;;;5087105;28;20522;-69
2023/06/23 06:07:15;;;;;;;21.47;19.27;;;17.50;99.90;;;;;;5089453;28;20433;-69
2023/06/23 06:09:42;;;;;;;20.47;18.43;;;17.50;99.90;;;;;;5089202;28;20484;-69
2023/06/23 06:12:09;;;;;;;21.73;18.87;;;17.50;99.90;;;;;;5089057;28;20407;-69
2023/06/23 06:14:38;;;;;;;19.87;17.77;;;17.60;99.90;;;;;;5086806;28;20437;-69
2023/06/23 06:17:07;;;;;;;20.43;18.43;;;17.60;99.90;;;;;;5088022;28;21064;-69
2023/06/23 06:19:37;;;;;;;21.40;19.20;;;17.60;99.90;;;;;;5083210;28;20442;-69
2023/06/23 06:22:06;;;;;;;20.10;17.60;;;17.60;99.90;;;;;;5082758;28;20465;-69
2023/06/23 06:24:32;;;;;;;20.90;17.57;;;17.60;99.90;;;;;;5078325;28;20483;-69
2023/06/23 06:27:00;;;;;;;18.90;17.10;;;17.60;99.90;;;;;;5067854;28;20404;-69
2023/06/23 06:29:27;;;;;;;21.50;19.30;;;17.60;99.90;;;;;;5079176;28;20439;-69
2023/06/23 06:31:56;;;;;;;20.83;18.70;;;17.60;99.90;;;;;;5088755;28;20405;-69
2023/06/23 06:34:24;;;;;;;22.43;18.67;;;17.70;99.90;;;;;;5088592;28;20829;-69
2023/06/23 06:36:51;;;;;;;19.63;17.80;;;17.80;99.90;;;;;;5088282;28;20430;-69
2023/06/23 06:39:18;;;;;;;19.60;17.57;;;18.00;99.90;;;;;;5068884;28;20519;-69
2023/06/23 06:41:46;;;;;;;19.80;17.80;;;18.10;99.90;;;;;;5068477;28;21007;-69
2023/06/23 06:44:12;;;;;;;19.77;17.87;;;18.20;99.90;;;;;;5068516;28;20450;-69
2023/06/23 06:46:39;;;;;;;19.70;17.60;;;18.30;99.90;;;;;;5074213;28;20434;-69
2023/06/23 06:49:06;;;;;;;20.87;18.67;;;18.40;99.90;;;;;;5078040;28;20199;-69
2023/06/23 06:51:32;;;;;;;19.43;17.20;;;18.40;99.90;;;;;;5076444;28;20854;-69
2023/06/23 06:53:58;;;;;;;18.23;16.50;;;18.50;99.90;;;;;;5078530;28;20495;-69
2023/06/23 06:56:24;;;;;;;19.67;17.73;;;18.60;99.90;;;;;;5075092;28;20489;-70
2023/06/23 06:58:51;;;;;;;19.47;17.50;;;18.70;99.90;;;;;;5079319;28;20200;-70
2023/06/23 07:01:18;;;;;;;17.20;15.17;;;18.80;99.90;;;;;;5077075;28;20912;-70
2023/06/23 07:03:44;;;;;;;18.43;16.73;;;18.80;99.90;;;;;;5077490;28;20415;-70
2023/06/23 07:06:11;;;;;;;18.20;16.40;;;18.90;99.90;;;;;;5078021;28;20503;-70
2023/06/23 07:08:36;;;;;;;16.20;14.70;;;18.90;99.90;;;;;;5078591;28;20499;-70
2023/06/23 07:11:02;;;;;;;17.33;15.63;;;19.00;99.90;;;;;;5077135;28;20980;-70
2023/06/23 07:13:28;;;;;;;19.00;16.30;;;19.10;99.90;;;;;;5079159;28;20173;-70
2023/06/23 07:15:53;;;;;;;17.67;15.90;;;19.20;99.90;;;;;;5078006;28;20232;-70
2023/06/23 07:18:19;;;;;;;16.97;14.23;;;19.30;99.90;;;;;;5074858;28;20182;-70
2023/06/23 07:20:45;;;;;;;17.43;15.67;;;19.30;99.90;;;;;;5088316;28;20659;-70
2023/06/23 07:23:11;;;;;;;16.67;14.97;;;19.40;99.90;;;;;;5085036;28;20182;-70
2023/06/23 07:25:36;;;;;;;14.63;12.70;;;19.40;99.90;;;;;;5075532;28;20459;-70
2023/06/23 07:28:02;;;;;;;14.90;13.50;;;19.40;99.90;;;;;;5078893;28;20179;-70
2023/06/23 07:30:28;;;;;;;15.40;13.80;;;19.50;99.90;;;;;;5077152;28;20205;-70
2023/06/23 07:32:53;;;;;;;16.97;15.20;;;19.50;99.90;;;;;;5067706;28;20234;-71
2023/06/23 07:35:19;;;;;;;16.97;13.80;;;19.60;99.90;;;;;;5084275;28;20192;-70
2023/06/23 07:37:45;;;;;;;16.77;13.80;;;19.70;99.90;;;;;;5087946;28;20177;-70
2023/06/23 07:40:11;;;;;;;15.63;13.80;;;19.80;99.90;;;;;;5070876;28;20301;-70
2023/06/23 07:42:37;;;;;;;15.60;14.07;;;20.00;99.90;;;;;;5067726;28;20307;-70
2023/06/23 07:45:03;;;;;;;13.77;12.37;;;20.10;99.90;;;;;;5067884;28;20561;-70
2023/06/23 07:47:29;;;;;;;14.47;13.00;;;20.20;99.90;;;;;;5070024;28;20180;-70
2023/06/23 07:49:54;;;;;;;15.20;13.03;;;20.30;99.90;;;;;;5082775;28;20434;-70
2023/06/23 07:52:20;;;;;;;13.80;12.50;;;20.30;99.90;;;;;;5082962;28;20177;-70
2023/06/23 07:54:47;;;;;;;14.87;11.40;;;20.30;99.90;;;;;;5081938;28;20271;-70
2023/06/23 07:57:13;;;;;;;12.10;10.77;;;20.40;99.90;;;;;;5088988;28;20173;-70
2023/06/23 07:59:38;;;;;;;12.67;10.30;;;20.40;99.90;;;;;;5071820;28;20449;-70
2023/06/23 08:02:04;;;;;;;12.00;10.07;;;20.50;99.90;;;;;;5082187;28;20414;-70
2023/06/23 08:04:30;;;;;;;11.57;10.40;;;20.60;99.90;;;;;;5084965;28;20252;-70
2023/06/23 08:06:56;;;;;;;11.97;10.80;;;20.70;99.90;;;;;;5071939;28;20404;-70
2023/06/23 08:09:22;;;;;;;9.80;8.80;;;20.70;99.90;;;;;;5071681;28;20255;-70
2023/06/23 08:11:47;;;;;;;10.23;9.23;;;20.70;99.90;;;;;;5071221;28;20177;-70
2023/06/23 08:14:13;;;;;;;10.30;9.20;;;20.70;99.90;;;;;;5071349;28;20172;-70
2023/06/23 08:16:39;;;;;;;9.70;8.70;;;20.80;99.90;;;;;;5071706;28;20180;-70
2023/06/23 08:19:05;;;;;;;10.43;9.23;;;20.90;99.90;;;;;;5071457;28;20197;-70
2023/06/23 08:21:31;;;;;;;10.90;9.20;;;20.90;99.90;;;;;;5070911;28;20419;-70
2023/06/23 08:23:57;;;;;;;11.27;9.77;;;20.90;99.90;;;;;;5071183;28;20764;-70
2023/06/23 08:26:23;;;;;;;8.93;8.20;;;20.90;99.90;;;;;;5071495;28;20208;-70
2023/06/23 08:28:49;;;;;;;9.20;8.30;;;20.90;99.90;;;;;;5078623;28;20442;-70
2023/06/23 08:31:15;;;;;;;9.00;7.87;;;20.90;99.90;;;;;;5091509;28;20876;-70
2023/06/23 08:33:40;;;;;;;8.40;7.60;;;20.90;99.90;;;;;;5090799;28;20221;-70
2023/06/23 08:36:07;;;;;;;8.50;7.10;;;21.00;99.90;;;;;;5091770;28;20176;-70
2023/06/23 08:38:32;;;;;;;8.83;6.80;;;21.20;99.90;;;;;;5091394;28;20743;-70
2023/06/23 08:40:59;;;;;;;7.23;6.53;;;21.20;99.90;;;;;;5085139;28;20418;-70
2023/06/23 08:43:28;;;;;;;7.30;6.37;;;21.40;99.90;;;;;;5090542;28;20240;-70
2023/06/23 08:45:58;;;;;;;8.53;7.67;;;21.50;99.90;;;;;;5091317;28;20455;-70
2023/06/23 08:48:26;;;;;;;11.23;7.10;;;21.60;99.90;;;;;;5091385;28;21135;-70
2023/06/23 08:51:02;;;;;;;5.87;5.33;;;21.70;99.90;;;;;;5091214;28;20509;-70
2023/06/23 08:53:28;;;;;;;6.60;5.90;;;21.70;99.90;;;;;;5090346;28;20501;-70
2023/06/23 08:55:55;;;;;;;5.80;4.77;;;21.70;99.90;;;;;;5091238;28;20446;-70
2023/06/23 08:58:22;;;;;;;5.40;4.90;;;21.70;99.90;;;;;;5089964;28;20422;-70
2023/06/23 09:00:52;;;;;;;5.67;4.57;;;21.70;99.90;;;;;;5090920;28;20430;-70
2023/06/23 09:03:22;;;;;;;6.30;5.13;;;21.80;99.90;;;;;;5083938;28;20446;-70
2023/06/23 09:05:48;;;;;;;5.20;4.80;;;21.80;99.90;;;;;;5070559;28;20554;-70
2023/06/23 09:08:14;;;;;;;5.10;4.13;;;21.80;99.90;;;;;;5069610;28;20507;-70
2023/06/23 09:10:40;;;;;;;6.33;4.73;;;21.90;99.90;;;;;;5070495;28;20730;-70
2023/06/23 09:13:26;;;;;;;4.20;3.73;;;22.00;99.90;;;;;;5069654;28;20414;-70
2023/06/23 09:15:53;;;;;;;6.40;5.50;;;22.10;99.90;;;;;;5067849;28;20521;-70
2023/06/23 09:18:20;;;;;;;4.90;4.50;;;22.20;99.90;;;;;;5070508;28;20911;-70
2023/06/23 09:20:47;;;;;;;5.80;4.20;;;22.30;99.90;;;;;;5070361;28;20423;-70
2023/06/23 09:23:18;;;;;;;4.10;3.80;;;22.30;99.90;;;;;;5076347;28;20414;-70
2023/06/23 09:25:53;;;;;;;5.13;4.73;;;22.40;99.90;;;;;;5090591;28;20450;-70
2023/06/23 09:28:23;;;;;;;5.30;4.80;;;22.50;99.90;;;;;;5082803;28;20452;-70
2023/06/23 09:30:50;;;;;;;6.13;5.53;;;22.50;99.90;;;;;;5068905;28;20470;-70
2023/06/23 09:33:20;;;;;;;6.13;5.53;;;22.50;99.90;;;;;;5069475;28;20476;-70
2023/06/23 09:35:55;;;;;;;5.40;4.90;;;22.40;99.90;;;;;;5070190;28;20415;-70
2023/06/23 09:38:25;;;;;;;5.57;5.07;;;22.30;99.90;;;;;;5070416;28;20756;-70
2023/06/23 09:41:07;;;;;;;5.53;5.00;;;22.40;99.90;;;;;;5068939;28;20516;-70
2023/06/23 09:43:44;;;;;;;5.40;4.90;;;22.60;99.90;;;;;;5082560;28;20414;-70
2023/06/23 09:46:12;;;;;;;6.27;5.40;;;22.70;99.90;;;;;;5080718;28;20469;-70
2023/06/23 09:48:38;;;;;;;8.37;5.77;;;22.60;99.90;;;;;;5069996;28;20423;-70
2023/06/23 09:51:05;;;;;;;6.10;5.27;;;22.50;99.90;;;;;;5069837;28;20434;-70
2023/06/23 09:53:33;;;;;;;5.60;5.10;;;22.40;99.90;;;;;;5067686;28;20416;-70
2023/06/23 09:56:00;;;;;;;6.40;5.50;;;22.40;99.90;;;;;;5069941;28;20422;-70
2023/06/23 09:58:53;;;;;;;5.40;4.77;;;22.60;99.90;;;;;;5068957;28;20438;-71
2023/06/23 10:01:20;;;;;;;4.60;4.20;;;22.70;99.90;;;;;;5067907;28;20787;-71
2023/06/23 10:03:45;;;;;;;6.47;4.13;;;22.80;99.90;;;;;;5069092;28;20412;-70
2023/06/23 10:06:37;;;;;;;5.57;5.00;;;23.00;99.90;;;;;;5069801;28;20789;-70
2023/06/23 10:09:07;;;;;;;4.47;4.07;;;23.00;99.90;;;;;;5069150;28;20224;-70
2023/06/23 10:11:40;;;;;;;5.03;4.30;;;23.20;99.90;;;;;;5068709;28;20769;-71
2023/06/23 10:14:11;;;;;;;5.63;5.13;;;23.30;99.90;;;;;;5069081;28;20799;-70
2023/06/23 10:16:41;;;;;;;5.00;4.50;;;23.30;99.90;;;;;;5067882;28;20422;-70
2023/06/23 10:19:07;;;;;;;6.47;5.20;;;23.40;99.90;;;;;;5069326;28;20453;-70
2023/06/23 10:21:35;;;;;;;5.60;5.10;;;23.50;99.90;;;;;;5068667;28;20749;-70
2023/06/23 10:24:10;;;;;;;5.50;4.90;;;23.50;99.90;;;;;;5068915;28;20517;-70
2023/06/23 10:26:37;;;;;;;6.40;5.60;;;23.70;99.90;;;;;;5069182;28;20887;-70
2023/06/23 10:29:18;;;;;;;6.30;5.63;;;23.70;99.90;;;;;;5078757;28;20434;-70
2023/06/23 10:31:45;;;;;;;8.90;6.10;;;23.80;99.90;;;;;;5080758;28;20434;-69
2023/06/23 10:34:12;;;;;;;6.50;5.90;;;23.90;99.90;;;;;;5079247;28;20576;-70
2023/06/23 10:36:43;;;;;;;6.30;5.70;;;23.90;99.90;;;;;;5083562;28;20427;-69
2023/06/23 10:39:10;;;;;;;6.30;5.70;;;23.80;99.90;;;;;;5081422;28;20439;-70
2023/06/23 10:41:40;;;;;;;5.13;4.73;;;23.80;99.90;;;;;;5082200;28;20418;-70
2023/06/23 10:44:07;;;;;;;6.37;5.87;;;23.90;99.90;;;;;;5087851;28;20445;-70
2023/06/23 10:46:35;;;;;;;5.70;5.17;;;24.00;99.90;;;;;;5079785;28;20490;-70
2023/06/23 10:49:04;;;;;;;5.97;5.47;;;24.10;99.90;;;;;;5086105;28;20449;-70
2023/06/23 10:51:31;;;;;;;6.27;5.67;;;24.10;99.90;;;;;;5079097;28;20415;-70
2023/06/23 10:53:59;;;;;;;7.77;6.07;;;24.00;99.90;;;;;;5084141;28;20943;-70
2023/06/23 10:56:36;;;;;;;5.53;5.03;;;23.90;99.90;;;;;;5081866;28;20919;-70
2023/06/23 10:59:20;;;;;;;5.70;5.20;;;23.70;99.90;;;;;;5081552;28;20829;-70
2023/06/23 11:02:03;;;;;;;5.40;4.90;;;23.80;99.90;;;;;;5085621;28;20498;-70
2023/06/23 11:04:33;;;;;;;4.80;4.40;;;24.00;99.90;;;;;;5077188;28;20808;-70
2023/06/23 11:07:02;;;;;;;5.10;4.60;;;24.10;99.90;;;;;;5085098;28;20426;-70
2023/06/23 11:09:54;;;;;;;6.33;5.40;;;24.30;99.90;;;;;;5084535;28;20434;-70
2023/06/23 11:12:36;;;;;;;6.60;5.90;;;24.30;99.90;;;;;;5080531;28;20422;-70
2023/06/23 11:15:20;;;;;;;6.07;5.57;;;24.40;99.90;;;;;;5081708;28;20410;-70
2023/06/23 11:17:46;;;;;;;6.03;5.53;;;24.40;99.90;;;;;;5080084;28;21179;-70
2023/06/23 11:20:23;;;;;;;5.73;5.23;;;24.50;99.90;;;;;;5077051;28;20522;-70
2023/06/23 11:23:15;;;;;;;5.90;5.40;;;24.70;99.90;;;;;;5090383;28;20193;-70
2023/06/23 11:25:48;;;;;;;5.60;5.10;;;24.80;99.90;;;;;;5083825;28;20458;-70
2023/06/23 11:28:30;;;;;;;6.80;4.80;;;24.90;99.90;;;;;;5087592;28;20481;-70
2023/06/23 11:31:19;;;;;;;4.77;4.37;;;25.00;99.90;;;;;;5084221;28;20513;-70
2023/06/23 11:33:59;;;;;;;5.63;4.63;;;25.10;99.90;;;;;;5088907;28;20446;-70
2023/06/23 11:36:27;;;;;;;4.60;4.30;;;25.10;99.90;;;;;;5087527;28;20414;-70
2023/06/23 11:38:55;;;;;;;8.30;5.57;;;25.00;99.90;;;;;;5081183;28;20488;-70
2023/06/23 11:41:25;;;;;;;4.50;4.10;;;25.00;99.90;;;;;;5084990;28;20509;-70
2023/06/23 11:43:59;;;;;;;4.70;4.30;;;25.10;99.90;;;;;;5087644;28;20422;-70
2023/06/23 11:46:26;;;;;;;4.80;4.40;;;25.20;99.90;;;;;;5081774;28;20506;-70
2023/06/23 11:48:52;;;;;;;6.07;5.57;;;25.30;99.90;;;;;;5087006;28;20449;-70
2023/06/23 11:51:19;;;;;;;4.93;4.50;;;25.30;99.90;;;;;;5081252;28;21051;-70
2023/06/23 11:53:45;;;;;;;6.43;5.83;;;25.20;99.90;;;;;;5084434;28;20177;-70
2023/06/23 11:56:16;;;;;;;4.97;4.50;;;25.20;99.90;;;;;;5089033;28;20450;-68
2023/06/23 11:58:51;;;;;;;5.43;4.90;;;25.20;99.90;;;;;;5081671;28;20797;-70
2023/06/23 12:01:17;;;;;;;5.07;4.67;;;25.30;99.90;;;;;;5086066;28;20505;-70
2023/06/23 12:03:51;;;;;;;4.63;4.33;;;25.20;99.90;;;;;;5090445;28;20778;-70
2023/06/23 12:06:18;;;;;;;4.40;4.00;;;25.30;99.90;;;;;;5086280;28;20545;-70
2023/06/23 12:08:45;;;;;;;5.90;4.10;;;25.40;99.90;;;;;;5090494;28;20426;-70
2023/06/23 12:11:11;;;;;;;5.30;4.80;;;25.50;99.90;;;;;;5081658;28;20745;-70
2023/06/23 12:13:37;;;;;;;5.20;4.80;;;25.50;99.90;;;;;;5086424;28;20425;-70
2023/06/23 12:16:04;;;;;;;4.87;4.47;;;25.50;99.60;;;;;;5085702;28;20665;-70
2023/06/23 12:18:30;;;;;;;5.20;4.70;;;25.60;99.90;;;;;;5087840;28;20426;-70
2023/06/23 12:21:00;;;;;;;4.50;4.10;;;25.60;99.10;;;;;;5083498;28;20429;-70
2023/06/23 12:23:30;;;;;;;4.50;4.10;;;25.60;98.70;;;;;;5084783;28;20195;-70
2023/06/23 12:25:57;;;;;;;5.53;4.57;;;25.40;98.30;;;;;;5081448;28;20460;-70
2023/06/23 12:28:28;;;;;;;4.60;4.20;;;25.30;98.20;;;;;;5084191;28;20421;-70
2023/06/23 12:30:54;;;;;;;4.07;3.67;;;25.30;98.90;;;;;;5079944;28;20438;-70
2023/06/23 12:33:22;;;;;;;5.30;4.90;;;25.40;99.70;;;;;;5086759;28;20407;-71
2023/06/23 12:36:02;;;;;;;5.17;4.67;;;25.30;98.00;;;;;;5080287;28;20650;-71
2023/06/23 12:38:30;;;;;;;4.70;4.30;;;25.20;98.20;;;;;;5085236;28;20418;-71
2023/06/23 12:41:20;;;;;;;4.53;4.13;;;25.10;98.10;;;;;;5088072;28;20756;-71
2023/06/23 12:43:49;;;;;;;5.77;4.93;;;25.00;99.10;;;;;;5081199;28;20434;-71
2023/06/23 12:46:17;;;;;;;3.93;3.63;;;25.00;99.00;;;;;;5086636;28;20486;-71
2023/06/23 12:48:44;;;;;;;4.80;4.50;;;25.10;97.70;;;;;;5080290;28;20782;-71